WHISKEYTOWN DAM (USBR) (WHI)

Elevation: 1210' · SACRAMENTO R basin · Operator: US Bureau of Reclamation

Provisional data, subject to change.
Query executed Saturday at 13:45:40   clock

Select a sensor type for a plot of data.
Note: Reservoir Flows are daily averages.

Earlier

Date RES ELE    STORAGE    RES CHG    OUTFLOW    INFLOW    EVAP    RIV REL    PPT INC    RAIN    SPILL    DIS PWR   
 FEET   AF   AF   CFS   CFS   CFS   CFS   INCHES   INCHES   CFS   CFS  
07/30/2015 1209.14 238343 224 1418 1564 33 176 0.00 51.30 0 1242
07/31/2015 1209.17 238439 96 1470 1539 21 176 0.00 51.30 0 1294
08/01/2015 1209.20 238535 96 1506 1572 18 176 0.00 51.30 0 1330
08/02/2015 1209.29 238823 288 1506 1679 28 176 0.00 51.30 0 1330
08/03/2015 1209.16 238407 -416 1534 1344 20 176 0.00 51.30 0 1358
08/04/2015 1209.02 237959 -448 1741 1544 29 176 0.00 51.30 0 1565
08/05/2015 1208.88 237514 -445 1738 1532 18 176 0.00 51.30 0 1562
08/06/2015 1208.86 237450 -64 1719 1701 14 176 0.00 51.30 0 1543
08/07/2015 1208.89 237545 95 1692 1760 20 176 0.00 51.30 0 1516
08/08/2015 1208.85 237418 -127 1721 1679 22 176 0.00 51.30 0 1545
08/09/2015 1208.95 237736 318 1455 1630 15 176 0.00 51.30 0 1279
08/10/2015 1208.89 237545 -191 1526 1454 24 176 0.00 51.30 0 1350
08/11/2015 1208.94 237704 159 1283 1387 24 176 0.00 51.30 0 1107
08/12/2015 1209.18 238471 767 1351 1781 43 176 0.00 51.30 0 1175
08/13/2015 1209.41 239207 -- 1180 1574 23 176 0.00 51.30 0 1004
08/14/2015 1209.38 239111 -96 1541 1517 24 176 0.00 51.30 0 1365
08/15/2015 1209.43 239271 160 1444 1546 21 176 0.00 51.30 0 1268
08/16/2015 1209.27 238759 -512 1402 1162 18 176 0.00 51.30 0 1226
08/17/2015 1209.19 238503 -256 1529 1431 31 176 0.00 51.30 0 1353
08/18/2015 1209.20 238535 32 1690 1736 30 176 0.00 51.30 0 1514
08/19/2015 1209.23 238631 96 1423 1499 28 176 0.00 51.30 0 1247
08/20/2015 1209.33 238951 320 1347 1526 18 176 0.00 51.30 0 1171
08/21/2015 1209.39 239143 192 1461 1576 18 176 0.00 51.30 0 1285
08/22/2015 1209.43 239271 128 1413 1495 17 176 0.00 51.30 0 1237
08/23/2015 1209.14 238343 -928 2060 1618 26 176 0.00 51.30 0 1884
08/24/2015 1209.10 238215 -128 1617 1578 26 176 0.00 51.30 0 1441
08/25/2015 1209.04 238023 -192 1551 1477 23 176 0.00 51.30 0 1375
08/26/2015 1208.97 237800 -223 1682 1595 25 176 0.00 51.30 0 1506
08/27/2015 1208.93 237673 -127 1598 1559 25 176 0.00 51.30 0 1422
08/28/2015 1208.88 237514 -159 1602 1545 23 176 0.00 51.30 0 1426
08/29/2015 -- -- -- -- -- -- -- -- -- -- --

Later | Latest

Warning! This data is preliminary and subject to revision.

Show WHI Map | Plot WHI Data | 1 Month WHI Data | Real-Time WHI Data | WHI Info